createdAt,value
2019-05-30T00:02:02.586Z,11.53
2019-05-30T00:04:35.730Z,11.03
2019-05-30T00:07:10.937Z,10.60
2019-05-30T00:09:43.097Z,10.00
2019-05-30T00:12:15.759Z,10.08
2019-05-30T00:14:48.137Z,11.35
2019-05-30T00:17:20.802Z,11.20
2019-05-30T00:19:54.824Z,10.45
2019-05-30T00:22:27.656Z,10.43
2019-05-30T00:25:00.699Z,10.48
2019-05-30T00:27:33.359Z,10.70
2019-05-30T00:32:40.495Z,8.90
2019-05-30T00:35:13.229Z,10.03
2019-05-30T00:37:45.782Z,9.25
2019-05-30T00:40:18.523Z,9.23
2019-05-30T00:42:50.975Z,9.28
2019-05-30T00:45:23.646Z,8.65
2019-05-30T00:47:56.093Z,7.92
2019-05-30T00:50:28.999Z,9.58
2019-05-30T00:53:02.822Z,8.93
2019-05-30T00:55:35.553Z,8.13
2019-05-30T00:58:09.108Z,11.78
2019-05-30T01:03:14.753Z,7.85
2019-05-30T01:05:47.335Z,7.58
2019-05-30T01:08:19.782Z,7.58
2019-05-30T01:10:52.498Z,7.75
2019-05-30T01:13:25.245Z,7.30
2019-05-30T01:15:58.848Z,7.75
2019-05-30T01:18:31.636Z,7.90
2019-05-30T01:21:05.396Z,8.18
2019-05-30T01:23:39.577Z,7.53
2019-05-30T01:26:12.870Z,7.83
2019-05-30T01:28:45.575Z,7.28
2019-05-30T01:31:17.828Z,7.25
2019-05-30T01:33:50.476Z,7.47
2019-05-30T01:36:23.075Z,8.00
2019-05-30T01:38:55.656Z,7.03
2019-05-30T01:41:28.566Z,7.35
2019-05-30T01:44:01.908Z,6.25
2019-05-30T01:46:34.591Z,6.42
2019-05-30T01:49:08.588Z,6.47
2019-05-30T01:51:42.102Z,6.22
2019-05-30T01:56:46.050Z,5.75
2019-05-30T01:59:18.940Z,6.58
2019-05-30T02:01:51.410Z,6.20
2019-05-30T02:04:24.068Z,5.45
2019-05-30T02:06:56.436Z,6.37
2019-05-30T02:09:31.789Z,5.53
2019-05-30T02:12:05.484Z,6.22
2019-05-30T02:14:38.256Z,6.25
2019-05-30T02:17:11.986Z,6.20
2019-05-30T02:19:44.484Z,6.75
2019-05-30T02:22:17.019Z,6.08
2019-05-30T02:24:49.633Z,5.50
2019-05-30T02:27:22.376Z,5.87
2019-05-30T02:29:55.260Z,5.87
2019-05-30T02:32:27.745Z,5.87
2019-05-30T02:35:00.813Z,6.20
2019-05-30T02:37:33.409Z,6.58
2019-05-30T02:40:12.254Z,6.05
2019-05-30T02:42:42.570Z,6.47
2019-05-30T02:45:16.534Z,6.20
2019-05-30T02:47:49.276Z,6.03
2019-05-30T02:50:21.981Z,6.40
2019-05-30T02:52:54.287Z,6.12
2019-05-30T02:55:26.970Z,6.70
2019-05-30T02:58:01.210Z,5.95
2019-05-30T03:00:36.109Z,6.58
2019-05-30T03:03:11.155Z,5.97
2019-05-30T03:05:42.810Z,6.80
2019-05-30T03:08:15.415Z,7.05
2019-05-30T03:10:48.197Z,7.47
2019-05-30T03:13:21.678Z,6.95
2019-05-30T03:15:54.600Z,7.00
2019-05-30T03:18:26.980Z,6.65
2019-05-30T03:20:59.810Z,6.50
2019-05-30T03:23:32.631Z,6.28
2019-05-30T03:26:07.075Z,6.72
2019-05-30T03:28:39.220Z,5.97
2019-05-30T03:31:23.004Z,6.58
2019-05-30T03:33:46.739Z,6.97
2019-05-30T03:36:28.636Z,6.75
2019-05-30T03:38:54.852Z,7.75
2019-05-30T03:41:27.626Z,7.70
2019-05-30T03:43:59.995Z,7.40
2019-05-30T03:46:38.307Z,6.25
2019-05-30T03:49:15.069Z,6.45
2019-05-30T03:51:49.350Z,6.58
2019-05-30T03:54:23.513Z,4.78
2019-05-30T03:57:06.525Z,5.53
2019-05-30T03:59:44.565Z,5.53
2019-05-30T04:02:58.457Z,5.12
2019-05-30T04:05:33.098Z,5.75
2019-05-30T04:08:09.959Z,6.67
2019-05-30T04:10:45.709Z,6.20
2019-05-30T04:13:32.844Z,6.87
2019-05-30T04:16:06.953Z,6.75
2019-05-30T04:18:39.514Z,6.37
2019-05-30T04:21:14.123Z,6.55
2019-05-30T04:23:46.082Z,8.00
2019-05-30T04:26:18.698Z,7.60
2019-05-30T04:28:51.390Z,7.05
2019-05-30T04:31:23.945Z,7.67
2019-05-30T04:33:56.430Z,7.85
2019-05-30T04:36:29.191Z,9.53
2019-05-30T04:39:01.872Z,12.63
2019-05-30T04:41:35.793Z,18.50
2019-05-30T04:44:09.827Z,19.80
2019-05-30T04:46:42.691Z,21.07
2019-05-30T04:49:16.911Z,22.13
2019-05-30T04:51:49.363Z,23.15
2019-05-30T04:54:22.087Z,21.02
2019-05-30T04:56:54.339Z,18.50
2019-05-30T04:59:26.822Z,19.27
2019-05-30T05:02:00.150Z,17.20
2019-05-30T05:04:32.687Z,17.95
2019-05-30T05:07:05.348Z,15.98
2019-05-30T05:09:38.256Z,17.70
2019-05-30T05:12:11.991Z,20.17
2019-05-30T05:14:44.544Z,20.85
2019-05-30T05:17:17.191Z,23.25
2019-05-30T05:19:50.384Z,25.15
2019-05-30T05:22:25.341Z,29.35
2019-05-30T05:25:02.048Z,30.02
2019-05-30T05:27:35.343Z,30.48
2019-05-30T05:30:10.703Z,30.17
2019-05-30T05:32:43.912Z,32.83
2019-05-30T05:35:19.117Z,31.10
2019-05-30T05:37:52.551Z,28.77
2019-05-30T05:40:29.533Z,22.25
2019-05-30T05:43:04.777Z,25.75
2019-05-30T05:45:38.302Z,25.45
2019-05-30T05:48:14.467Z,26.70
2019-05-30T05:50:46.411Z,25.68
2019-05-30T05:53:20.849Z,26.00
2019-05-30T05:55:53.293Z,26.00
2019-05-30T05:58:26.567Z,24.72
2019-05-30T06:00:59.191Z,25.12
2019-05-30T06:03:31.879Z,23.45
2019-05-30T06:06:04.453Z,23.12
2019-05-30T06:08:37.093Z,22.37
2019-05-30T06:11:10.192Z,19.48
2019-05-30T06:13:42.663Z,18.62
2019-05-30T06:16:17.704Z,22.87
2019-05-30T06:18:50.831Z,17.57
2019-05-30T06:21:23.540Z,14.10
2019-05-30T06:23:56.349Z,12.00
2019-05-30T06:26:28.838Z,12.18
2019-05-30T06:29:01.448Z,10.48
2019-05-30T06:31:33.893Z,9.25
2019-05-30T06:34:06.487Z,9.45
2019-05-30T06:36:38.930Z,8.95
2019-05-30T06:39:11.535Z,8.68
2019-05-30T06:41:43.980Z,7.60
2019-05-30T06:44:16.806Z,7.10
2019-05-30T06:46:49.144Z,7.28
2019-05-30T06:49:22.808Z,7.65
2019-05-30T06:51:55.111Z,8.53
2019-05-30T06:54:28.244Z,9.48
2019-05-30T06:57:02.886Z,8.25
2019-05-30T06:59:35.391Z,7.47
2019-05-30T07:02:07.785Z,6.53
2019-05-30T07:04:51.425Z,8.18
2019-05-30T07:07:15.208Z,7.85
2019-05-30T07:09:47.665Z,15.13
2019-05-30T07:12:20.401Z,17.60
2019-05-30T07:14:52.842Z,20.70
2019-05-30T07:17:25.506Z,22.15
2019-05-30T07:19:58.941Z,16.70
2019-05-30T07:22:31.887Z,24.50
2019-05-30T07:25:06.159Z,25.02
2019-05-30T07:27:38.376Z,23.52
2019-05-30T07:30:11.751Z,19.75
2019-05-30T07:32:44.150Z,13.15
2019-05-30T07:35:17.031Z,11.83
2019-05-30T07:37:49.276Z,11.50
2019-05-30T07:40:22.268Z,11.30
2019-05-30T07:42:54.737Z,12.68
2019-05-30T07:45:27.384Z,18.70
2019-05-30T07:47:59.788Z,25.30
2019-05-30T07:50:32.928Z,30.23
2019-05-30T07:53:05.158Z,30.97
2019-05-30T07:55:37.764Z,24.60
2019-05-30T07:58:10.741Z,20.82
2019-05-30T08:00:43.451Z,20.80
2019-05-30T08:03:15.742Z,17.23
2019-05-30T08:05:48.254Z,18.62
2019-05-30T08:08:20.713Z,14.55
2019-05-30T08:11:08.436Z,14.33
2019-05-30T08:13:27.230Z,14.28
2019-05-30T08:16:00.053Z,15.78
2019-05-30T08:18:33.660Z,13.70
2019-05-30T08:21:06.709Z,11.30
2019-05-30T08:23:39.150Z,10.38
2019-05-30T08:26:11.979Z,10.00
2019-05-30T08:28:44.403Z,10.23
2019-05-30T08:31:17.115Z,11.15
2019-05-30T08:33:49.809Z,12.55
2019-05-30T08:36:22.436Z,13.93
2019-05-30T08:38:55.154Z,13.18
2019-05-30T08:41:29.100Z,13.53
2019-05-30T08:44:01.739Z,15.20
2019-05-30T08:46:33.983Z,17.95
2019-05-30T08:49:06.554Z,8.88
2019-05-30T08:51:40.487Z,9.08
2019-05-30T08:54:14.110Z,8.80
2019-05-30T08:56:46.767Z,10.20
2019-05-30T08:59:19.530Z,11.83
2019-05-30T09:01:53.293Z,9.50
2019-05-30T09:04:31.435Z,15.30
2019-05-30T09:07:04.015Z,8.85
2019-05-30T09:09:36.612Z,9.08
2019-05-30T09:12:09.281Z,10.32
2019-05-30T09:14:42.866Z,6.40
2019-05-30T09:17:15.445Z,5.05
2019-05-30T09:19:48.167Z,7.50
2019-05-30T09:22:20.745Z,8.55
2019-05-30T09:24:53.637Z,6.78
2019-05-30T09:27:26.309Z,7.33
2019-05-30T09:29:58.844Z,7.70
2019-05-30T09:32:31.431Z,6.65
2019-05-30T09:35:05.398Z,6.08
2019-05-30T09:37:38.714Z,5.62
2019-05-30T09:40:13.187Z,5.75
2019-05-30T09:42:46.891Z,6.25
2019-05-30T09:45:20.836Z,4.92
2019-05-30T09:47:53.134Z,5.00
2019-05-30T09:50:25.820Z,2.87
2019-05-30T09:52:58.330Z,3.42
2019-05-30T09:55:30.803Z,3.62
2019-05-30T09:58:03.242Z,3.33
2019-05-30T10:00:37.029Z,3.67
2019-05-30T10:03:09.420Z,3.15
2019-05-30T10:05:43.312Z,3.33
2019-05-30T10:08:16.226Z,3.90
2019-05-30T10:10:49.542Z,4.72
2019-05-30T10:13:22.165Z,3.58
2019-05-30T10:15:54.944Z,2.83
2019-05-30T10:18:27.332Z,2.70
2019-05-30T10:20:59.924Z,2.22
2019-05-30T10:23:32.519Z,3.67
2019-05-30T10:26:05.076Z,2.95
2019-05-30T10:28:37.863Z,2.70
2019-05-30T10:31:10.252Z,2.33
2019-05-30T10:33:42.493Z,2.60
2019-05-30T10:36:14.977Z,2.27
2019-05-30T10:38:49.085Z,2.60
2019-05-30T10:41:21.568Z,3.60
2019-05-30T10:43:54.129Z,2.90
2019-05-30T10:46:26.624Z,2.52
2019-05-30T10:48:58.873Z,2.17
2019-05-30T10:51:31.387Z,2.30
2019-05-30T10:54:04.768Z,2.72
2019-05-30T10:56:37.244Z,2.40
2019-05-30T10:59:09.713Z,2.92
2019-05-30T11:01:41.972Z,2.85
2019-05-30T11:04:14.655Z,3.40
2019-05-30T11:07:11.606Z,2.40
2019-05-30T11:09:46.557Z,2.95
2019-05-30T11:12:18.898Z,2.42
2019-05-30T11:14:53.658Z,2.40
2019-05-30T11:17:26.100Z,2.20
2019-05-30T11:19:58.677Z,2.67
2019-05-30T11:22:30.929Z,2.05
2019-05-30T11:25:03.332Z,2.40
2019-05-30T11:27:35.816Z,2.30
2019-05-30T11:30:09.197Z,2.10
2019-05-30T11:32:41.565Z,2.30
2019-05-30T11:35:14.390Z,1.75
2019-05-30T11:37:46.625Z,2.20
2019-05-30T11:40:19.406Z,2.10
2019-05-30T11:42:51.679Z,2.02
2019-05-30T11:45:24.658Z,1.90
2019-05-30T11:47:58.076Z,1.90
2019-05-30T11:50:32.446Z,1.95
2019-05-30T11:53:04.784Z,2.08
2019-05-30T11:55:37.240Z,1.80
2019-05-30T11:58:09.950Z,2.05
2019-05-30T12:00:42.711Z,1.95
2019-05-30T12:03:14.984Z,1.95
2019-05-30T12:05:47.607Z,1.92
2019-05-30T12:08:20.000Z,3.37
2019-05-30T12:10:53.146Z,4.40
2019-05-30T12:13:25.608Z,3.22
2019-05-30T12:15:59.540Z,2.40
2019-05-30T12:18:31.848Z,2.60
2019-05-30T12:21:04.418Z,2.15
2019-05-30T12:23:36.702Z,2.35
2019-05-30T12:26:09.108Z,2.22
2019-05-30T12:28:41.765Z,4.65
2019-05-30T12:31:14.777Z,5.50
2019-05-30T12:33:47.180Z,5.17
2019-05-30T12:36:19.815Z,5.00
2019-05-30T12:38:52.283Z,3.65
2019-05-30T12:41:24.867Z,2.83
2019-05-30T12:43:57.100Z,3.30
2019-05-30T12:46:29.783Z,2.30
2019-05-30T12:49:03.522Z,2.35
2019-05-30T12:51:37.190Z,2.58
2019-05-30T12:54:09.586Z,1.82
2019-05-30T12:56:42.261Z,2.20
2019-05-30T12:59:14.651Z,1.60
2019-05-30T13:01:47.338Z,1.87
2019-05-30T13:04:19.472Z,2.00
2019-05-30T13:06:54.144Z,1.67
2019-05-30T13:09:25.967Z,2.30
2019-05-30T13:11:58.501Z,2.25
2019-05-30T13:14:30.814Z,1.85
2019-05-30T13:17:04.031Z,2.05
2019-05-30T13:19:36.866Z,2.10
2019-05-30T13:22:09.584Z,2.00
2019-05-30T13:24:41.944Z,2.00
2019-05-30T13:27:14.575Z,1.85
2019-05-30T13:29:47.096Z,1.98
2019-05-30T13:32:19.960Z,1.95
2019-05-30T13:34:52.641Z,1.60
2019-05-30T13:37:25.080Z,1.35
2019-05-30T13:39:57.386Z,1.70
2019-05-30T13:42:29.849Z,1.60
2019-05-30T13:45:02.166Z,1.90
2019-05-30T13:47:34.593Z,1.62
2019-05-30T13:50:13.435Z,2.05
2019-05-30T13:52:44.202Z,1.60
2019-05-30T13:55:16.450Z,1.80
2019-05-30T13:57:48.713Z,1.80
2019-05-30T14:00:21.198Z,1.75
2019-05-30T14:02:54.002Z,1.82
2019-05-30T14:05:26.746Z,1.85
2019-05-30T14:07:59.938Z,2.08
2019-05-30T14:10:32.101Z,1.80
2019-05-30T14:13:04.597Z,1.92
2019-05-30T14:15:37.813Z,1.85
2019-05-30T14:18:11.207Z,1.65
2019-05-30T14:20:44.501Z,2.30
2019-05-30T14:23:17.228Z,2.12
2019-05-30T14:25:50.579Z,1.72
2019-05-30T14:28:23.131Z,2.55
2019-05-30T14:30:55.401Z,2.45
2019-05-30T14:33:27.874Z,2.90
2019-05-30T14:36:00.060Z,2.22
2019-05-30T14:38:32.944Z,2.92
2019-05-30T14:41:05.288Z,2.30
2019-05-30T14:43:37.882Z,2.60
2019-05-30T14:46:10.393Z,2.85
2019-05-30T14:48:42.990Z,4.33
2019-05-30T14:51:17.017Z,3.50
2019-05-30T14:53:49.454Z,3.95
2019-05-30T14:56:22.105Z,3.37
2019-05-30T14:58:54.245Z,3.22
2019-05-30T15:01:26.843Z,2.58
2019-05-30T15:03:59.392Z,3.33
2019-05-30T15:06:31.969Z,2.17
2019-05-30T15:09:17.563Z,1.90
2019-05-30T15:11:40.129Z,2.62
2019-05-30T15:14:12.955Z,2.45
2019-05-30T15:16:45.247Z,3.10
2019-05-30T15:19:18.199Z,2.50
2019-05-30T15:21:50.497Z,2.50
2019-05-30T15:24:23.615Z,3.17
2019-05-30T15:26:55.974Z,2.52
2019-05-30T15:29:28.496Z,3.00
2019-05-30T15:32:01.947Z,2.42
2019-05-30T15:34:34.668Z,2.17
2019-05-30T15:37:07.221Z,1.90
2019-05-30T15:39:40.184Z,2.42
2019-05-30T15:42:13.598Z,1.90
2019-05-30T15:44:45.894Z,1.65
2019-05-30T15:47:18.533Z,2.22
2019-05-30T15:49:52.389Z,2.25
2019-05-30T15:52:26.082Z,1.80
2019-05-30T15:54:58.433Z,2.90
2019-05-30T15:57:31.686Z,2.22
2019-05-30T16:00:07.707Z,2.50
2019-05-30T16:02:39.786Z,1.90
2019-05-30T16:05:12.818Z,2.40
2019-05-30T16:07:45.196Z,2.00
2019-05-30T16:10:19.002Z,2.47
2019-05-30T16:12:51.800Z,2.80
2019-05-30T16:15:24.415Z,2.75
2019-05-30T16:17:56.588Z,2.65
2019-05-30T16:20:29.101Z,2.02
2019-05-30T16:23:01.601Z,2.27
2019-05-30T16:25:34.094Z,2.42
2019-05-30T16:28:06.438Z,3.08
2019-05-30T16:30:38.722Z,14.47
2019-05-30T16:33:11.371Z,2.98
2019-05-30T16:35:44.556Z,2.15
2019-05-30T16:38:18.020Z,2.98
2019-05-30T16:40:50.694Z,2.40
2019-05-30T16:43:23.226Z,2.50
2019-05-30T16:45:55.583Z,2.27
2019-05-30T16:48:27.962Z,2.40
2019-05-30T16:51:00.653Z,2.90
2019-05-30T16:53:33.305Z,2.30
2019-05-30T16:56:06.011Z,2.70
2019-05-30T16:58:38.373Z,3.10
2019-05-30T17:01:10.982Z,2.72
2019-05-30T17:03:43.424Z,2.75
2019-05-30T17:06:15.967Z,3.40
2019-05-30T17:08:48.686Z,5.47
2019-05-30T17:11:21.474Z,16.12
2019-05-30T17:13:54.143Z,5.20
2019-05-30T17:16:26.770Z,7.05
2019-05-30T17:18:59.502Z,8.08
2019-05-30T17:21:32.315Z,9.08
2019-05-30T17:24:04.974Z,13.98
2019-05-30T17:26:37.500Z,11.35
2019-05-30T17:29:10.024Z,10.82
2019-05-30T17:31:43.107Z,10.25
2019-05-30T17:34:15.606Z,9.90
2019-05-30T17:36:48.211Z,9.93
2019-05-30T17:39:20.755Z,9.98
2019-05-30T17:41:53.519Z,9.23
2019-05-30T17:44:27.159Z,9.43
2019-05-30T17:46:59.985Z,9.70
2019-05-30T17:49:32.631Z,9.20
2019-05-30T17:52:05.204Z,11.20
2019-05-30T17:54:37.798Z,9.73
2019-05-30T17:57:10.444Z,11.38
2019-05-30T17:59:42.900Z,10.65
2019-05-30T18:02:15.478Z,10.25
2019-05-30T18:04:48.394Z,9.48
2019-05-30T18:07:21.181Z,9.90
2019-05-30T18:09:55.347Z,10.72
2019-05-30T18:12:29.091Z,10.98
2019-05-30T18:15:01.651Z,10.78
2019-05-30T18:17:34.159Z,11.12
2019-05-30T18:20:09.800Z,11.93
2019-05-30T18:22:43.201Z,11.03
2019-05-30T18:25:16.264Z,10.43
2019-05-30T18:27:48.766Z,11.35
2019-05-30T18:30:23.710Z,10.15
2019-05-30T18:32:56.597Z,8.18
2019-05-30T18:35:30.236Z,8.08
2019-05-30T18:38:03.154Z,8.45
2019-05-30T18:40:38.245Z,10.30
2019-05-30T18:43:11.046Z,6.80
2019-05-30T18:45:45.550Z,7.42
2019-05-30T18:48:17.828Z,6.53
2019-05-30T18:50:50.359Z,5.37
2019-05-30T18:53:24.156Z,5.72
2019-05-30T18:55:56.714Z,5.75
2019-05-30T18:58:29.367Z,6.12
2019-05-30T19:01:02.056Z,16.57
2019-05-30T19:03:34.624Z,18.20
2019-05-30T19:06:07.415Z,20.17
2019-05-30T19:08:39.818Z,16.52
2019-05-30T19:11:26.750Z,12.85
2019-05-30T19:13:47.496Z,11.28
2019-05-30T19:16:20.141Z,10.90
2019-05-30T19:18:52.584Z,10.43
2019-05-30T19:21:25.784Z,10.78
2019-05-30T19:23:58.206Z,11.60
2019-05-30T19:26:32.441Z,11.68
2019-05-30T19:29:04.840Z,12.53
2019-05-30T19:31:37.659Z,13.30
2019-05-30T19:34:11.192Z,14.50
2019-05-30T19:36:44.342Z,12.85
2019-05-30T19:39:17.158Z,11.73
2019-05-30T19:41:56.649Z,10.15
2019-05-30T19:44:24.073Z,8.30
2019-05-30T19:46:56.521Z,7.70
2019-05-30T19:49:30.366Z,6.30
2019-05-30T19:52:03.833Z,8.18
2019-05-30T19:54:37.168Z,8.83
2019-05-30T19:57:10.108Z,9.70
2019-05-30T19:59:42.799Z,7.58
2019-05-30T20:02:15.329Z,7.95
2019-05-30T20:04:47.961Z,8.40
2019-05-30T20:07:21.179Z,16.25
2019-05-30T20:10:01.488Z,21.97
2019-05-30T20:12:28.290Z,19.52
2019-05-30T20:15:01.016Z,27.98
2019-05-30T20:17:35.503Z,21.95
2019-05-30T20:20:09.465Z,23.18
2019-05-30T20:22:42.414Z,24.05
2019-05-30T20:25:15.477Z,28.40
2019-05-30T20:27:48.196Z,26.27
2019-05-30T20:30:21.331Z,26.50
2019-05-30T20:32:54.206Z,27.90
2019-05-30T20:35:26.784Z,25.70
2019-05-30T20:38:01.545Z,29.92
2019-05-30T20:40:34.993Z,28.42
2019-05-30T20:43:08.010Z,26.65
2019-05-30T20:45:45.646Z,25.08
2019-05-30T20:48:14.902Z,26.12
2019-05-30T20:50:47.558Z,26.42
2019-05-30T20:53:20.635Z,24.15
2019-05-30T20:55:53.118Z,25.90
2019-05-30T20:58:25.792Z,24.52
2019-05-30T21:00:58.397Z,24.80
2019-05-30T21:03:31.074Z,30.52
2019-05-30T21:06:04.239Z,26.15
2019-05-30T21:08:39.034Z,22.75
2019-05-30T21:11:12.672Z,20.55
2019-05-30T21:13:47.130Z,19.77
2019-05-30T21:16:22.263Z,10.55
2019-05-30T21:18:55.146Z,12.40
2019-05-30T21:21:28.034Z,9.88
2019-05-30T21:24:00.636Z,12.30
2019-05-30T21:26:33.360Z,11.28
2019-05-30T21:29:05.935Z,9.20
2019-05-30T21:31:39.320Z,8.73
2019-05-30T21:34:12.093Z,8.08
2019-05-30T21:36:46.029Z,7.25
2019-05-30T21:39:18.804Z,7.28
2019-05-30T21:41:51.328Z,8.48
2019-05-30T21:44:23.547Z,7.65
2019-05-30T21:46:56.365Z,10.65
2019-05-30T21:49:28.804Z,8.95
2019-05-30T21:52:01.586Z,8.43
2019-05-30T21:54:33.847Z,7.92
2019-05-30T21:57:06.534Z,5.78
2019-05-30T21:59:40.204Z,6.50
2019-05-30T22:02:12.924Z,7.03
2019-05-30T22:04:46.488Z,6.92
2019-05-30T22:07:19.318Z,6.20
2019-05-30T22:09:54.850Z,4.78
2019-05-30T22:12:27.352Z,5.25
2019-05-30T22:15:00.094Z,5.12
2019-05-30T22:17:32.712Z,5.08
2019-05-30T22:20:06.611Z,4.80
2019-05-30T22:22:38.849Z,5.00
2019-05-30T22:25:11.540Z,4.50
2019-05-30T22:27:44.542Z,6.08
2019-05-30T22:30:17.506Z,4.40
2019-05-30T22:32:50.760Z,4.60
2019-05-30T22:35:23.312Z,5.17
2019-05-30T22:37:55.856Z,4.87
2019-05-30T22:40:28.382Z,5.72
2019-05-30T22:43:00.945Z,5.20
2019-05-30T22:45:35.322Z,5.70
2019-05-30T22:48:07.920Z,5.30
2019-05-30T22:50:40.494Z,5.10
2019-05-30T22:53:12.989Z,4.95
2019-05-30T22:55:45.572Z,5.90
2019-05-30T22:58:18.113Z,6.20
2019-05-30T23:00:52.112Z,5.92
2019-05-30T23:03:24.546Z,8.15
2019-05-30T23:05:57.590Z,6.30
2019-05-30T23:08:30.213Z,8.50
2019-05-30T23:11:02.737Z,8.20
2019-05-30T23:13:40.437Z,8.10
2019-05-30T23:16:09.456Z,6.97
2019-05-30T23:18:42.112Z,6.70
2019-05-30T23:21:14.677Z,7.85
2019-05-30T23:23:47.474Z,8.00
2019-05-30T23:26:19.740Z,11.12
2019-05-30T23:28:52.259Z,11.33
2019-05-30T23:31:25.675Z,10.63
2019-05-30T23:33:58.668Z,7.87
2019-05-30T23:36:31.074Z,8.38
2019-05-30T23:39:03.684Z,9.70
2019-05-30T23:41:37.263Z,9.00
2019-05-30T23:44:11.899Z,9.45
2019-05-30T23:46:44.143Z,9.80
2019-05-30T23:49:16.584Z,8.53
2019-05-30T23:51:49.905Z,9.05
2019-05-30T23:54:22.730Z,10.00
2019-05-30T23:56:56.408Z,9.75
2019-05-30T23:59:28.940Z,9.90
